sensor_id;sensor_type;location;lat;lon;timestamp;P1;durP1;ratioP1;P2;durP2;ratioP2
81884;SDS011;71340;55.154;30.266;2023-07-29T00:00:21;5.40;;;3.27;;
81884;SDS011;71340;55.154;30.266;2023-07-29T00:02:47;4.15;;;3.35;;
81884;SDS011;71340;55.154;30.266;2023-07-29T00:05:12;4.27;;;2.63;;
81884;SDS011;71340;55.154;30.266;2023-07-29T00:07:37;5.70;;;3.03;;
81884;SDS011;71340;55.154;30.266;2023-07-29T00:10:03;4.37;;;2.90;;
81884;SDS011;71340;55.154;30.266;2023-07-29T00:12:28;5.07;;;2.90;;
81884;SDS011;71340;55.154;30.266;2023-07-29T00:14:54;5.68;;;3.33;;
81884;SDS011;71340;55.154;30.266;2023-07-29T00:17:20;7.40;;;3.30;;
81884;SDS011;71340;55.154;30.266;2023-07-29T00:19:45;5.07;;;3.08;;
81884;SDS011;71340;55.154;30.266;2023-07-29T00:22:11;6.07;;;3.07;;
81884;SDS011;71340;55.154;30.266;2023-07-29T00:24:37;3.85;;;2.83;;
81884;SDS011;71340;55.154;30.266;2023-07-29T00:27:02;5.87;;;2.80;;
81884;SDS011;71340;55.154;30.266;2023-07-29T00:29:28;4.03;;;3.13;;
81884;SDS011;71340;55.154;30.266;2023-07-29T00:31:53;3.63;;;2.83;;
81884;SDS011;71340;55.154;30.266;2023-07-29T00:34:18;7.47;;;3.03;;
81884;SDS011;71340;55.154;30.266;2023-07-29T00:36:45;4.10;;;2.63;;
81884;SDS011;71340;55.154;30.266;2023-07-29T00:39:10;5.15;;;2.90;;
81884;SDS011;71340;55.154;30.266;2023-07-29T00:41:36;8.07;;;3.07;;
81884;SDS011;71340;55.154;30.266;2023-07-29T00:44:02;4.65;;;2.90;;
81884;SDS011;71340;55.154;30.266;2023-07-29T00:46:28;3.93;;;2.60;;
81884;SDS011;71340;55.154;30.266;2023-07-29T00:48:54;4.90;;;2.75;;
81884;SDS011;71340;55.154;30.266;2023-07-29T00:51:20;4.43;;;2.60;;
81884;SDS011;71340;55.154;30.266;2023-07-29T00:53:46;3.73;;;3.07;;
81884;SDS011;71340;55.154;30.266;2023-07-29T00:56:11;3.90;;;3.50;;
81884;SDS011;71340;55.154;30.266;2023-07-29T00:58:37;6.07;;;2.73;;
81884;SDS011;71340;55.154;30.266;2023-07-29T01:01:03;5.05;;;2.90;;
81884;SDS011;71340;55.154;30.266;2023-07-29T01:03:28;3.60;;;2.47;;
81884;SDS011;71340;55.154;30.266;2023-07-29T01:06:12;4.20;;;2.57;;
81884;SDS011;71340;55.154;30.266;2023-07-29T01:11:30;3.50;;;2.97;;
81884;SDS011;71340;55.154;30.266;2023-07-29T01:17:08;3.63;;;3.28;;
81884;SDS011;71340;55.154;30.266;2023-07-29T01:19:42;4.47;;;2.53;;
81884;SDS011;71340;55.154;30.266;2023-07-29T01:22:17;5.40;;;2.80;;
81884;SDS011;71340;55.154;30.266;2023-07-29T01:24:45;5.25;;;2.70;;
81884;SDS011;71340;55.154;30.266;2023-07-29T01:27:10;9.27;;;2.80;;
81884;SDS011;71340;55.154;30.266;2023-07-29T01:29:36;4.13;;;3.03;;
81884;SDS011;71340;55.154;30.266;2023-07-29T01:32:04;4.80;;;2.90;;
81884;SDS011;71340;55.154;30.266;2023-07-29T01:34:45;4.68;;;2.63;;
81884;SDS011;71340;55.154;30.266;2023-07-29T01:37:17;4.00;;;2.53;;
81884;SDS011;71340;55.154;30.266;2023-07-29T01:39:47;5.07;;;2.72;;
81884;SDS011;71340;55.154;30.266;2023-07-29T01:42:15;5.38;;;3.00;;
81884;SDS011;71340;55.154;30.266;2023-07-29T01:44:41;5.30;;;3.40;;
81884;SDS011;71340;55.154;30.266;2023-07-29T01:47:07;6.20;;;3.15;;
81884;SDS011;71340;55.154;30.266;2023-07-29T01:49:33;3.53;;;3.07;;
81884;SDS011;71340;55.154;30.266;2023-07-29T01:51:58;6.50;;;2.90;;
81884;SDS011;71340;55.154;30.266;2023-07-29T01:54:24;3.65;;;2.78;;
81884;SDS011;71340;55.154;30.266;2023-07-29T01:56:49;4.37;;;3.20;;
81884;SDS011;71340;55.154;30.266;2023-07-29T01:59:16;5.03;;;2.97;;
81884;SDS011;71340;55.154;30.266;2023-07-29T02:01:42;6.83;;;2.73;;
81884;SDS011;71340;55.154;30.266;2023-07-29T02:04:07;8.70;;;3.40;;
81884;SDS011;71340;55.154;30.266;2023-07-29T02:06:33;5.23;;;3.27;;
81884;SDS011;71340;55.154;30.266;2023-07-29T02:08:58;5.10;;;3.00;;
81884;SDS011;71340;55.154;30.266;2023-07-29T02:11:24;4.87;;;3.60;;
81884;SDS011;71340;55.154;30.266;2023-07-29T02:13:53;7.88;;;3.05;;
81884;SDS011;71340;55.154;30.266;2023-07-29T02:16:22;4.07;;;3.13;;
81884;SDS011;71340;55.154;30.266;2023-07-29T02:18:47;7.90;;;3.60;;
81884;SDS011;71340;55.154;30.266;2023-07-29T02:21:14;6.10;;;3.28;;
81884;SDS011;71340;55.154;30.266;2023-07-29T02:23:40;4.38;;;3.10;;
81884;SDS011;71340;55.154;30.266;2023-07-29T02:26:05;4.37;;;3.03;;
81884;SDS011;71340;55.154;30.266;2023-07-29T02:28:31;9.23;;;3.90;;
81884;SDS011;71340;55.154;30.266;2023-07-29T02:31:09;7.03;;;3.90;;
81884;SDS011;71340;55.154;30.266;2023-07-29T02:33:41;4.53;;;4.00;;
81884;SDS011;71340;55.154;30.266;2023-07-29T02:36:06;5.13;;;3.30;;
81884;SDS011;71340;55.154;30.266;2023-07-29T02:38:32;5.53;;;3.73;;
81884;SDS011;71340;55.154;30.266;2023-07-29T02:40:57;4.13;;;3.40;;
81884;SDS011;71340;55.154;30.266;2023-07-29T02:43:22;6.85;;;3.30;;
81884;SDS011;71340;55.154;30.266;2023-07-29T02:45:48;5.43;;;3.85;;
81884;SDS011;71340;55.154;30.266;2023-07-29T02:48:13;8.20;;;3.70;;
81884;SDS011;71340;55.154;30.266;2023-07-29T02:50:38;9.53;;;4.30;;
81884;SDS011;71340;55.154;30.266;2023-07-29T02:53:04;5.10;;;3.80;;
81884;SDS011;71340;55.154;30.266;2023-07-29T02:55:29;7.10;;;3.80;;
81884;SDS011;71340;55.154;30.266;2023-07-29T02:57:54;5.57;;;3.60;;
81884;SDS011;71340;55.154;30.266;2023-07-29T03:00:20;7.30;;;4.30;;
81884;SDS011;71340;55.154;30.266;2023-07-29T03:02:45;6.88;;;3.92;;
81884;SDS011;71340;55.154;30.266;2023-07-29T03:05:10;5.13;;;3.53;;
81884;SDS011;71340;55.154;30.266;2023-07-29T03:07:36;5.00;;;4.17;;
81884;SDS011;71340;55.154;30.266;2023-07-29T03:10:01;6.20;;;3.97;;
81884;SDS011;71340;55.154;30.266;2023-07-29T03:12:27;7.00;;;4.03;;
81884;SDS011;71340;55.154;30.266;2023-07-29T03:14:52;5.53;;;4.47;;
81884;SDS011;71340;55.154;30.266;2023-07-29T03:17:17;6.60;;;4.03;;
81884;SDS011;71340;55.154;30.266;2023-07-29T03:19:43;5.55;;;3.90;;
81884;SDS011;71340;55.154;30.266;2023-07-29T03:22:08;9.47;;;4.40;;
81884;SDS011;71340;55.154;30.266;2023-07-29T03:24:33;5.33;;;3.70;;
81884;SDS011;71340;55.154;30.266;2023-07-29T03:26:59;6.40;;;3.70;;
81884;SDS011;71340;55.154;30.266;2023-07-29T03:29:24;9.33;;;3.63;;
81884;SDS011;71340;55.154;30.266;2023-07-29T03:31:49;6.70;;;4.53;;
81884;SDS011;71340;55.154;30.266;2023-07-29T03:34:15;5.70;;;3.60;;
81884;SDS011;71340;55.154;30.266;2023-07-29T03:36:40;9.32;;;3.75;;
81884;SDS011;71340;55.154;30.266;2023-07-29T03:39:06;5.57;;;3.90;;
81884;SDS011;71340;55.154;30.266;2023-07-29T03:41:32;7.63;;;4.03;;
81884;SDS011;71340;55.154;30.266;2023-07-29T03:43:58;7.10;;;4.47;;
81884;SDS011;71340;55.154;30.266;2023-07-29T03:46:24;6.20;;;4.60;;
81884;SDS011;71340;55.154;30.266;2023-07-29T03:48:49;7.88;;;4.45;;
81884;SDS011;71340;55.154;30.266;2023-07-29T03:51:15;5.90;;;4.70;;
81884;SDS011;71340;55.154;30.266;2023-07-29T03:53:40;5.67;;;4.30;;
81884;SDS011;71340;55.154;30.266;2023-07-29T03:56:05;5.57;;;4.23;;
81884;SDS011;71340;55.154;30.266;2023-07-29T03:58:31;5.57;;;3.87;;
81884;SDS011;71340;55.154;30.266;2023-07-29T04:00:56;8.52;;;4.90;;
81884;SDS011;71340;55.154;30.266;2023-07-29T04:03:21;8.90;;;4.30;;
81884;SDS011;71340;55.154;30.266;2023-07-29T04:05:47;5.70;;;4.57;;
81884;SDS011;71340;55.154;30.266;2023-07-29T04:08:12;8.73;;;5.37;;
81884;SDS011;71340;55.154;30.266;2023-07-29T04:10:38;9.80;;;5.40;;
81884;SDS011;71340;55.154;30.266;2023-07-29T04:13:03;8.30;;;5.10;;
81884;SDS011;71340;55.154;30.266;2023-07-29T04:15:28;6.45;;;4.68;;
81884;SDS011;71340;55.154;30.266;2023-07-29T04:17:55;6.57;;;4.77;;
81884;SDS011;71340;55.154;30.266;2023-07-29T04:20:20;6.37;;;4.87;;
81884;SDS011;71340;55.154;30.266;2023-07-29T04:22:45;16.38;;;4.90;;
81884;SDS011;71340;55.154;30.266;2023-07-29T04:25:11;8.63;;;4.68;;
81884;SDS011;71340;55.154;30.266;2023-07-29T04:27:37;7.33;;;4.90;;
81884;SDS011;71340;55.154;30.266;2023-07-29T04:30:03;8.27;;;5.13;;
81884;SDS011;71340;55.154;30.266;2023-07-29T04:32:28;5.75;;;4.40;;
81884;SDS011;71340;55.154;30.266;2023-07-29T04:34:54;8.27;;;4.73;;
81884;SDS011;71340;55.154;30.266;2023-07-29T04:37:19;6.77;;;5.07;;
81884;SDS011;71340;55.154;30.266;2023-07-29T04:39:44;6.10;;;5.17;;
81884;SDS011;71340;55.154;30.266;2023-07-29T04:42:10;6.07;;;5.47;;
81884;SDS011;71340;55.154;30.266;2023-07-29T04:44:35;5.63;;;4.82;;
81884;SDS011;71340;55.154;30.266;2023-07-29T04:47:00;8.13;;;5.40;;
81884;SDS011;71340;55.154;30.266;2023-07-29T04:49:26;6.10;;;5.10;;
81884;SDS011;71340;55.154;30.266;2023-07-29T04:51:51;5.63;;;4.70;;
81884;SDS011;71340;55.154;30.266;2023-07-29T04:54:16;6.20;;;5.37;;
81884;SDS011;71340;55.154;30.266;2023-07-29T04:56:42;6.83;;;5.53;;
81884;SDS011;71340;55.154;30.266;2023-07-29T04:59:07;7.80;;;5.40;;
81884;SDS011;71340;55.154;30.266;2023-07-29T05:01:33;9.45;;;5.70;;
81884;SDS011;71340;55.154;30.266;2023-07-29T05:03:59;6.90;;;6.20;;
81884;SDS011;71340;55.154;30.266;2023-07-29T05:06:24;6.77;;;5.83;;
81884;SDS011;71340;55.154;30.266;2023-07-29T05:08:49;10.20;;;6.07;;
81884;SDS011;71340;55.154;30.266;2023-07-29T05:11:14;7.80;;;5.78;;
81884;SDS011;71340;55.154;30.266;2023-07-29T05:13:40;8.52;;;5.60;;
81884;SDS011;71340;55.154;30.266;2023-07-29T05:16:05;7.23;;;5.63;;
81884;SDS011;71340;55.154;30.266;2023-07-29T05:18:31;6.40;;;5.40;;
81884;SDS011;71340;55.154;30.266;2023-07-29T05:20:56;7.43;;;5.93;;
81884;SDS011;71340;55.154;30.266;2023-07-29T05:23:21;8.63;;;5.60;;
81884;SDS011;71340;55.154;30.266;2023-07-29T05:25:47;8.17;;;5.63;;
81884;SDS011;71340;55.154;30.266;2023-07-29T05:28:12;6.57;;;5.00;;
81884;SDS011;71340;55.154;30.266;2023-07-29T05:30:37;5.60;;;5.03;;
81884;SDS011;71340;55.154;30.266;2023-07-29T05:33:05;7.47;;;5.47;;
81884;SDS011;71340;55.154;30.266;2023-07-29T05:35:30;6.93;;;5.13;;
81884;SDS011;71340;55.154;30.266;2023-07-29T05:37:55;6.63;;;4.80;;
81884;SDS011;71340;55.154;30.266;2023-07-29T05:40:21;8.53;;;4.80;;
81884;SDS011;71340;55.154;30.266;2023-07-29T05:42:46;7.60;;;4.97;;
81884;SDS011;71340;55.154;30.266;2023-07-29T05:45:13;7.55;;;4.97;;
81884;SDS011;71340;55.154;30.266;2023-07-29T05:47:38;7.55;;;4.90;;
81884;SDS011;71340;55.154;30.266;2023-07-29T05:50:04;5.63;;;4.65;;
81884;SDS011;71340;55.154;30.266;2023-07-29T05:52:30;6.10;;;4.93;;
81884;SDS011;71340;55.154;30.266;2023-07-29T05:54:56;7.15;;;5.15;;
81884;SDS011;71340;55.154;30.266;2023-07-29T05:57:21;7.03;;;5.17;;
81884;SDS011;71340;55.154;30.266;2023-07-29T05:59:47;5.70;;;5.10;;
81884;SDS011;71340;55.154;30.266;2023-07-29T06:02:12;7.07;;;4.80;;
81884;SDS011;71340;55.154;30.266;2023-07-29T06:04:37;8.25;;;4.60;;
81884;SDS011;71340;55.154;30.266;2023-07-29T06:07:03;5.40;;;4.33;;
81884;SDS011;71340;55.154;30.266;2023-07-29T06:09:28;6.97;;;4.67;;
81884;SDS011;71340;55.154;30.266;2023-07-29T06:11:54;5.97;;;4.77;;
81884;SDS011;71340;55.154;30.266;2023-07-29T06:14:19;5.20;;;4.50;;
81884;SDS011;71340;55.154;30.266;2023-07-29T06:16:44;5.50;;;4.00;;
81884;SDS011;71340;55.154;30.266;2023-07-29T06:19:10;5.43;;;4.93;;
81884;SDS011;71340;55.154;30.266;2023-07-29T06:21:35;6.17;;;4.67;;
81884;SDS011;71340;55.154;30.266;2023-07-29T06:24:02;5.03;;;4.32;;
81884;SDS011;71340;55.154;30.266;2023-07-29T06:26:28;5.93;;;4.60;;
81884;SDS011;71340;55.154;30.266;2023-07-29T06:28:53;7.85;;;4.60;;
81884;SDS011;71340;55.154;30.266;2023-07-29T06:31:19;5.38;;;4.80;;
81884;SDS011;71340;55.154;30.266;2023-07-29T06:33:44;6.20;;;4.90;;
81884;SDS011;71340;55.154;30.266;2023-07-29T06:36:09;6.27;;;5.17;;
81884;SDS011;71340;55.154;30.266;2023-07-29T06:38:35;6.43;;;4.40;;
81884;SDS011;71340;55.154;30.266;2023-07-29T06:41:00;6.75;;;4.30;;
81884;SDS011;71340;55.154;30.266;2023-07-29T06:43:26;6.63;;;5.72;;
81884;SDS011;71340;55.154;30.266;2023-07-29T06:45:51;7.63;;;5.50;;
81884;SDS011;71340;55.154;30.266;2023-07-29T06:48:17;6.77;;;5.50;;
81884;SDS011;71340;55.154;30.266;2023-07-29T06:50:43;6.57;;;5.55;;
81884;SDS011;71340;55.154;30.266;2023-07-29T06:53:09;6.00;;;5.40;;
81884;SDS011;71340;55.154;30.266;2023-07-29T06:55:34;6.73;;;5.50;;
81884;SDS011;71340;55.154;30.266;2023-07-29T06:57:59;7.20;;;5.47;;
81884;SDS011;71340;55.154;30.266;2023-07-29T07:00:25;6.32;;;5.47;;
81884;SDS011;71340;55.154;30.266;2023-07-29T07:02:50;8.50;;;4.97;;
81884;SDS011;71340;55.154;30.266;2023-07-29T07:05:16;6.47;;;5.40;;
81884;SDS011;71340;55.154;30.266;2023-07-29T07:07:41;6.47;;;5.00;;
81884;SDS011;71340;55.154;30.266;2023-07-29T07:10:07;8.60;;;4.80;;
81884;SDS011;71340;55.154;30.266;2023-07-29T07:12:32;6.72;;;5.45;;
81884;SDS011;71340;55.154;30.266;2023-07-29T07:14:58;6.00;;;4.60;;
81884;SDS011;71340;55.154;30.266;2023-07-29T07:17:23;7.00;;;5.33;;
81884;SDS011;71340;55.154;30.266;2023-07-29T07:19:48;7.63;;;4.93;;
81884;SDS011;71340;55.154;30.266;2023-07-29T07:22:14;6.63;;;4.90;;
81884;SDS011;71340;55.154;30.266;2023-07-29T07:24:41;11.07;;;4.80;;
81884;SDS011;71340;55.154;30.266;2023-07-29T07:27:06;6.67;;;5.27;;
81884;SDS011;71340;55.154;30.266;2023-07-29T07:29:31;5.73;;;4.60;;
81884;SDS011;71340;55.154;30.266;2023-07-29T07:31:58;5.40;;;4.33;;
81884;SDS011;71340;55.154;30.266;2023-07-29T07:34:24;5.70;;;4.93;;
81884;SDS011;71340;55.154;30.266;2023-07-29T07:36:50;7.47;;;4.63;;
81884;SDS011;71340;55.154;30.266;2023-07-29T07:39:15;9.98;;;4.75;;
81884;SDS011;71340;55.154;30.266;2023-07-29T07:41:41;10.68;;;5.63;;
81884;SDS011;71340;55.154;30.266;2023-07-29T07:44:06;6.27;;;5.30;;
81884;SDS011;71340;55.154;30.266;2023-07-29T07:46:32;8.63;;;5.10;;
81884;SDS011;71340;55.154;30.266;2023-07-29T07:48:57;5.93;;;4.80;;
81884;SDS011;71340;55.154;30.266;2023-07-29T07:51:23;7.40;;;4.83;;
81884;SDS011;71340;55.154;30.266;2023-07-29T07:53:48;7.77;;;4.70;;
81884;SDS011;71340;55.154;30.266;2023-07-29T07:56:14;5.93;;;4.90;;
81884;SDS011;71340;55.154;30.266;2023-07-29T07:58:40;7.30;;;5.23;;
81884;SDS011;71340;55.154;30.266;2023-07-29T08:01:08;8.38;;;5.15;;
81884;SDS011;71340;55.154;30.266;2023-07-29T08:03:34;6.00;;;4.63;;
81884;SDS011;71340;55.154;30.266;2023-07-29T08:06:00;5.15;;;4.43;;
81884;SDS011;71340;55.154;30.266;2023-07-29T08:08:26;8.50;;;4.50;;
81884;SDS011;71340;55.154;30.266;2023-07-29T08:10:55;6.20;;;5.05;;
81884;SDS011;71340;55.154;30.266;2023-07-29T08:13:22;6.30;;;4.93;;
81884;SDS011;71340;55.154;30.266;2023-07-29T08:15:49;6.82;;;5.00;;
81884;SDS011;71340;55.154;30.266;2023-07-29T08:18:18;5.85;;;4.63;;
81884;SDS011;71340;55.154;30.266;2023-07-29T08:20:53;9.10;;;5.20;;
81884;SDS011;71340;55.154;30.266;2023-07-29T08:23:20;6.75;;;5.45;;
81884;SDS011;71340;55.154;30.266;2023-07-29T08:25:50;7.40;;;5.57;;
81884;SDS011;71340;55.154;30.266;2023-07-29T08:28:17;7.85;;;5.65;;
81884;SDS011;71340;55.154;30.266;2023-07-29T08:30:42;7.72;;;5.03;;
81884;SDS011;71340;55.154;30.266;2023-07-29T08:33:08;6.50;;;5.23;;
81884;SDS011;71340;55.154;30.266;2023-07-29T08:35:33;6.47;;;5.20;;
81884;SDS011;71340;55.154;30.266;2023-07-29T08:37:58;7.57;;;5.50;;
81884;SDS011;71340;55.154;30.266;2023-07-29T08:40:25;7.65;;;6.22;;
81884;SDS011;71340;55.154;30.266;2023-07-29T08:42:54;10.65;;;6.80;;
81884;SDS011;71340;55.154;30.266;2023-07-29T08:45:21;10.00;;;6.65;;
81884;SDS011;71340;55.154;30.266;2023-07-29T08:47:48;8.25;;;6.75;;
81884;SDS011;71340;55.154;30.266;2023-07-29T08:50:20;8.37;;;6.07;;
81884;SDS011;71340;55.154;30.266;2023-07-29T08:52:46;8.80;;;7.00;;
81884;SDS011;71340;55.154;30.266;2023-07-29T08:55:12;10.55;;;6.82;;
81884;SDS011;71340;55.154;30.266;2023-07-29T08:57:38;11.90;;;7.00;;
81884;SDS011;71340;55.154;30.266;2023-07-29T09:00:04;11.83;;;8.00;;
81884;SDS011;71340;55.154;30.266;2023-07-29T09:02:30;10.70;;;7.30;;
81884;SDS011;71340;55.154;30.266;2023-07-29T09:04:55;9.43;;;7.77;;
81884;SDS011;71340;55.154;30.266;2023-07-29T09:07:21;12.60;;;7.50;;
81884;SDS011;71340;55.154;30.266;2023-07-29T09:09:46;11.77;;;8.68;;
81884;SDS011;71340;55.154;30.266;2023-07-29T09:12:11;10.73;;;8.10;;
81884;SDS011;71340;55.154;30.266;2023-07-29T09:14:37;12.83;;;9.13;;
81884;SDS011;71340;55.154;30.266;2023-07-29T09:17:03;11.23;;;7.43;;
81884;SDS011;71340;55.154;30.266;2023-07-29T09:19:32;9.10;;;7.20;;
81884;SDS011;71340;55.154;30.266;2023-07-29T09:21:58;11.75;;;7.90;;
81884;SDS011;71340;55.154;30.266;2023-07-29T09:24:26;9.18;;;7.32;;
81884;SDS011;71340;55.154;30.266;2023-07-29T09:26:54;11.57;;;7.57;;
81884;SDS011;71340;55.154;30.266;2023-07-29T09:29:23;10.75;;;7.90;;
81884;SDS011;71340;55.154;30.266;2023-07-29T09:31:52;9.27;;;7.53;;
81884;SDS011;71340;55.154;30.266;2023-07-29T09:34:17;10.97;;;7.83;;
81884;SDS011;71340;55.154;30.266;2023-07-29T09:36:43;9.57;;;7.53;;
81884;SDS011;71340;55.154;30.266;2023-07-29T09:39:14;8.73;;;7.47;;
81884;SDS011;71340;55.154;30.266;2023-07-29T09:41:39;9.32;;;7.45;;
81884;SDS011;71340;55.154;30.266;2023-07-29T09:44:05;11.10;;;7.53;;
81884;SDS011;71340;55.154;30.266;2023-07-29T09:46:37;8.93;;;6.90;;
81884;SDS011;71340;55.154;30.266;2023-07-29T09:49:06;7.25;;;6.43;;
81884;SDS011;71340;55.154;30.266;2023-07-29T09:51:36;10.35;;;7.43;;
81884;SDS011;71340;55.154;30.266;2023-07-29T09:54:05;8.07;;;6.82;;
81884;SDS011;71340;55.154;30.266;2023-07-29T09:56:30;8.30;;;6.47;;
81884;SDS011;71340;55.154;30.266;2023-07-29T09:58:56;7.50;;;6.60;;
81884;SDS011;71340;55.154;30.266;2023-07-29T10:01:22;11.70;;;6.13;;
81884;SDS011;71340;55.154;30.266;2023-07-29T10:03:48;8.05;;;5.97;;
81884;SDS011;71340;55.154;30.266;2023-07-29T10:06:14;7.73;;;6.20;;
81884;SDS011;71340;55.154;30.266;2023-07-29T10:08:40;6.65;;;5.75;;
81884;SDS011;71340;55.154;30.266;2023-07-29T10:11:10;6.82;;;5.50;;
81884;SDS011;71340;55.154;30.266;2023-07-29T10:13:36;6.37;;;5.67;;
81884;SDS011;71340;55.154;30.266;2023-07-29T10:16:03;5.88;;;5.28;;
81884;SDS011;71340;55.154;30.266;2023-07-29T10:18:31;6.90;;;5.35;;
81884;SDS011;71340;55.154;30.266;2023-07-29T10:20:58;7.38;;;4.90;;
81884;SDS011;71340;55.154;30.266;2023-07-29T10:23:25;5.43;;;4.47;;
81884;SDS011;71340;55.154;30.266;2023-07-29T10:25:59;6.40;;;4.85;;
81884;SDS011;71340;55.154;30.266;2023-07-29T10:28:29;5.32;;;4.57;;
81884;SDS011;71340;55.154;30.266;2023-07-29T10:30:56;5.00;;;3.80;;
81884;SDS011;71340;55.154;30.266;2023-07-29T10:33:22;5.53;;;4.78;;
81884;SDS011;71340;55.154;30.266;2023-07-29T10:35:47;5.20;;;4.30;;
81884;SDS011;71340;55.154;30.266;2023-07-29T10:38:13;5.00;;;4.50;;
81884;SDS011;71340;55.154;30.266;2023-07-29T10:40:47;5.55;;;4.50;;
81884;SDS011;71340;55.154;30.266;2023-07-29T10:43:19;4.60;;;3.90;;
81884;SDS011;71340;55.154;30.266;2023-07-29T10:45:49;5.95;;;4.90;;
81884;SDS011;71340;55.154;30.266;2023-07-29T10:54:00;4.60;;;3.92;;
81884;SDS011;71340;55.154;30.266;2023-07-29T10:56:31;4.40;;;3.70;;
81884;SDS011;71340;55.154;30.266;2023-07-29T10:58:59;4.20;;;3.80;;
81884;SDS011;71340;55.154;30.266;2023-07-29T11:01:56;5.60;;;3.80;;
81884;SDS011;71340;55.154;30.266;2023-07-29T11:04:23;4.20;;;3.80;;
81884;SDS011;71340;55.154;30.266;2023-07-29T11:09:41;4.32;;;3.90;;
81884;SDS011;71340;55.154;30.266;2023-07-29T11:17:46;6.13;;;3.73;;
81884;SDS011;71340;55.154;30.266;2023-07-29T11:20:20;4.10;;;3.70;;
81884;SDS011;71340;55.154;30.266;2023-07-29T11:22:49;4.03;;;3.60;;
81884;SDS011;71340;55.154;30.266;2023-07-29T11:25:16;5.32;;;3.35;;
81884;SDS011;71340;55.154;30.266;2023-07-29T11:27:42;3.50;;;3.20;;
81884;SDS011;71340;55.154;30.266;2023-07-29T11:30:12;4.00;;;3.60;;
81884;SDS011;71340;55.154;30.266;2023-07-29T11:32:39;5.18;;;3.47;;
81884;SDS011;71340;55.154;30.266;2023-07-29T11:35:09;6.30;;;4.07;;
81884;SDS011;71340;55.154;30.266;2023-07-29T11:37:37;4.07;;;3.67;;
81884;SDS011;71340;55.154;30.266;2023-07-29T11:40:03;3.58;;;3.28;;
81884;SDS011;71340;55.154;30.266;2023-07-29T11:42:31;4.05;;;3.65;;
81884;SDS011;71340;55.154;30.266;2023-07-29T11:45:00;6.57;;;4.53;;
81884;SDS011;71340;55.154;30.266;2023-07-29T11:47:28;4.22;;;3.83;;
81884;SDS011;71340;55.154;30.266;2023-07-29T11:49:53;3.90;;;3.50;;
81884;SDS011;71340;55.154;30.266;2023-07-29T11:52:19;3.70;;;3.40;;
81884;SDS011;71340;55.154;30.266;2023-07-29T11:54:48;4.07;;;3.67;;
81884;SDS011;71340;55.154;30.266;2023-07-29T11:57:14;4.18;;;3.20;;
81884;SDS011;71340;55.154;30.266;2023-07-29T11:59:41;3.87;;;3.50;;
81884;SDS011;71340;55.154;30.266;2023-07-29T12:02:09;5.22;;;3.65;;
81884;SDS011;71340;55.154;30.266;2023-07-29T12:04:39;4.32;;;3.60;;
81884;SDS011;71340;55.154;30.266;2023-07-29T12:07:05;5.47;;;3.47;;
81884;SDS011;71340;55.154;30.266;2023-07-29T12:09:31;3.92;;;3.42;;
81884;SDS011;71340;55.154;30.266;2023-07-29T12:11:58;3.55;;;3.25;;
81884;SDS011;71340;55.154;30.266;2023-07-29T12:14:26;4.38;;;3.28;;
81884;SDS011;71340;55.154;30.266;2023-07-29T12:16:56;4.17;;;3.73;;
81884;SDS011;71340;55.154;30.266;2023-07-29T12:19:30;5.05;;;4.30;;
81884;SDS011;71340;55.154;30.266;2023-07-29T12:22:01;4.57;;;3.60;;
81884;SDS011;71340;55.154;30.266;2023-07-29T12:24:30;4.27;;;3.07;;
81884;SDS011;71340;55.154;30.266;2023-07-29T12:26:57;4.30;;;3.88;;
81884;SDS011;71340;55.154;30.266;2023-07-29T12:29:23;4.38;;;3.58;;
81884;SDS011;71340;55.154;30.266;2023-07-29T12:31:49;5.90;;;4.77;;
81884;SDS011;71340;55.154;30.266;2023-07-29T12:34:25;4.20;;;3.70;;
81884;SDS011;71340;55.154;30.266;2023-07-29T12:36:53;3.83;;;3.40;;
81884;SDS011;71340;55.154;30.266;2023-07-29T12:39:30;4.75;;;3.75;;
81884;SDS011;71340;55.154;30.266;2023-07-29T12:41:58;3.88;;;3.20;;
81884;SDS011;71340;55.154;30.266;2023-07-29T12:44:25;3.53;;;3.22;;
81884;SDS011;71340;55.154;30.266;2023-07-29T12:46:54;4.80;;;3.30;;
81884;SDS011;71340;55.154;30.266;2023-07-29T12:49:19;3.70;;;3.40;;
81884;SDS011;71340;55.154;30.266;2023-07-29T12:51:45;4.43;;;3.83;;
81884;SDS011;71340;55.154;30.266;2023-07-29T12:54:11;6.13;;;3.22;;
81884;SDS011;71340;55.154;30.266;2023-07-29T12:56:36;5.80;;;2.90;;
81884;SDS011;71340;55.154;30.266;2023-07-29T12:59:02;5.70;;;3.53;;
81884;SDS011;71340;55.154;30.266;2023-07-29T13:01:28;4.10;;;3.70;;
81884;SDS011;71340;55.154;30.266;2023-07-29T13:03:54;5.90;;;3.53;;
81884;SDS011;71340;55.154;30.266;2023-07-29T13:06:19;3.60;;;2.88;;
81884;SDS011;71340;55.154;30.266;2023-07-29T13:08:45;3.72;;;2.80;;
81884;SDS011;71340;55.154;30.266;2023-07-29T13:11:12;3.07;;;2.77;;
81884;SDS011;71340;55.154;30.266;2023-07-29T13:13:37;3.90;;;3.10;;
81884;SDS011;71340;55.154;30.266;2023-07-29T13:16:03;3.43;;;3.13;;
81884;SDS011;71340;55.154;30.266;2023-07-29T13:18:30;3.78;;;3.00;;
81884;SDS011;71340;55.154;30.266;2023-07-29T13:20:56;3.33;;;3.03;;
81884;SDS011;71340;55.154;30.266;2023-07-29T13:23:22;3.65;;;3.17;;
81884;SDS011;71340;55.154;30.266;2023-07-29T13:25:50;6.17;;;5.30;;
81884;SDS011;71340;55.154;30.266;2023-07-29T13:28:15;10.85;;;5.60;;
81884;SDS011;71340;55.154;30.266;2023-07-29T13:30:41;12.83;;;5.27;;
81884;SDS011;71340;55.154;30.266;2023-07-29T13:33:07;27.25;;;7.35;;
81884;SDS011;71340;55.154;30.266;2023-07-29T13:35:32;52.63;;;13.17;;
81884;SDS011;71340;55.154;30.266;2023-07-29T13:37:58;37.73;;;7.30;;
81884;SDS011;71340;55.154;30.266;2023-07-29T13:40:23;12.00;;;4.97;;
81884;SDS011;71340;55.154;30.266;2023-07-29T13:42:49;10.00;;;3.70;;
81884;SDS011;71340;55.154;30.266;2023-07-29T13:45:14;9.80;;;4.20;;
81884;SDS011;71340;55.154;30.266;2023-07-29T13:47:40;11.77;;;5.80;;
81884;SDS011;71340;55.154;30.266;2023-07-29T13:50:05;9.00;;;5.65;;
81884;SDS011;71340;55.154;30.266;2023-07-29T13:52:36;5.37;;;3.60;;
81884;SDS011;71340;55.154;30.266;2023-07-29T13:55:02;8.93;;;3.90;;
81884;SDS011;71340;55.154;30.266;2023-07-29T13:57:28;7.70;;;3.83;;
81884;SDS011;71340;55.154;30.266;2023-07-29T13:59:56;4.78;;;3.17;;
81884;SDS011;71340;55.154;30.266;2023-07-29T14:02:23;13.73;;;4.30;;
81884;SDS011;71340;55.154;30.266;2023-07-29T14:04:49;6.00;;;3.53;;
81884;SDS011;71340;55.154;30.266;2023-07-29T14:07:17;8.50;;;4.32;;
81884;SDS011;71340;55.154;30.266;2023-07-29T14:09:42;3.60;;;3.30;;
81884;SDS011;71340;55.154;30.266;2023-07-29T14:12:08;3.33;;;3.00;;
81884;SDS011;71340;55.154;30.266;2023-07-29T14:14:37;4.60;;;3.33;;
81884;SDS011;71340;55.154;30.266;2023-07-29T14:17:03;3.77;;;3.33;;
81884;SDS011;71340;55.154;30.266;2023-07-29T14:19:28;7.73;;;3.63;;
81884;SDS011;71340;55.154;30.266;2023-07-29T14:21:53;3.45;;;3.03;;
81884;SDS011;71340;55.154;30.266;2023-07-29T14:24:19;3.17;;;2.97;;
81884;SDS011;71340;55.154;30.266;2023-07-29T14:26:46;3.20;;;2.90;;
81884;SDS011;71340;55.154;30.266;2023-07-29T14:29:12;53.47;;;8.80;;
81884;SDS011;71340;55.154;30.266;2023-07-29T14:31:37;14.93;;;5.33;;
81884;SDS011;71340;55.154;30.266;2023-07-29T14:34:02;7.90;;;4.23;;
81884;SDS011;71340;55.154;30.266;2023-07-29T14:36:28;6.87;;;3.90;;
81884;SDS011;71340;55.154;30.266;2023-07-29T14:38:53;12.97;;;5.50;;
81884;SDS011;71340;55.154;30.266;2023-07-29T14:41:18;9.27;;;4.27;;
81884;SDS011;71340;55.154;30.266;2023-07-29T14:43:44;3.83;;;3.50;;
81884;SDS011;71340;55.154;30.266;2023-07-29T14:46:09;3.63;;;3.10;;
81884;SDS011;71340;55.154;30.266;2023-07-29T14:48:35;113.20;;;24.60;;